createdAt,value
2017-05-02T00:01:40.656Z,90.90
2017-05-02T00:04:08.978Z,91.10
2017-05-02T00:06:37.257Z,90.40
2017-05-02T00:09:05.534Z,90.70
2017-05-02T00:11:33.841Z,90.80
2017-05-02T00:14:02.858Z,90.70
2017-05-02T00:16:31.177Z,90.40
2017-05-02T00:18:59.454Z,90.90
2017-05-02T00:21:27.737Z,90.40
2017-05-02T00:23:56.033Z,90.40
2017-05-02T00:26:24.314Z,90.40
2017-05-02T00:28:52.621Z,90.40
2017-05-02T00:31:20.907Z,90.60
2017-05-02T00:33:49.190Z,90.60
2017-05-02T00:36:17.497Z,90.50
2017-05-02T00:38:45.769Z,90.80
2017-05-02T00:41:14.092Z,90.90
2017-05-02T00:43:43.114Z,90.80
2017-05-02T00:46:11.393Z,91.20
2017-05-02T00:48:39.713Z,91.30
2017-05-02T00:51:08.001Z,91.20
2017-05-02T00:53:36.370Z,91.10
2017-05-02T00:56:05.433Z,90.90
2017-05-02T00:58:33.714Z,91.10
2017-05-02T01:01:02.021Z,91.10
2017-05-02T01:03:30.305Z,91.30
2017-05-02T01:05:58.637Z,90.90
2017-05-02T01:08:26.993Z,91.20
2017-05-02T01:10:56.013Z,91.10
2017-05-02T01:13:24.310Z,91.40
2017-05-02T01:15:52.588Z,91.50
2017-05-02T01:18:20.903Z,91.30
2017-05-02T01:20:49.956Z,91.60
2017-05-02T01:23:18.233Z,91.20
2017-05-02T01:25:46.538Z,91.30
2017-05-02T01:28:14.825Z,91.30
2017-05-02T01:30:43.141Z,91.20
2017-05-02T01:33:11.417Z,91.30
2017-05-02T01:35:39.693Z,91.50
2017-05-02T01:38:07.994Z,91.30
2017-05-02T01:40:36.269Z,91.60
2017-05-02T01:43:04.585Z,91.50
2017-05-02T01:45:32.862Z,91.60
2017-05-02T01:48:01.141Z,91.20
2017-05-02T01:50:29.537Z,91.50
2017-05-02T01:52:57.812Z,91.30
2017-05-02T01:55:26.124Z,91.30
2017-05-02T01:57:54.410Z,91.30
2017-05-02T02:00:22.692Z,91.30
2017-05-02T02:02:50.996Z,91.30
2017-05-02T02:05:19.291Z,91.40
2017-05-02T02:07:47.606Z,91.50
2017-05-02T02:10:15.894Z,91.60
2017-05-02T02:12:44.186Z,91.60
2017-05-02T02:15:12.509Z,91.50
2017-05-02T02:17:40.781Z,91.50
2017-05-02T02:20:09.049Z,91.30
2017-05-02T02:22:37.376Z,91.30
2017-05-02T02:25:05.670Z,91.50
2017-05-02T02:27:33.950Z,91.10
2017-05-02T02:30:02.266Z,91.60
2017-05-02T02:32:30.549Z,91.60
2017-05-02T02:34:58.840Z,91.70
2017-05-02T02:37:27.152Z,91.50
2017-05-02T02:39:55.434Z,91.20
2017-05-02T02:42:23.715Z,91.60
2017-05-02T02:44:52.030Z,91.50
2017-05-02T02:47:20.321Z,91.20
2017-05-02T02:49:48.610Z,91.30
2017-05-02T02:52:16.944Z,91.20
2017-05-02T02:54:45.236Z,91.30
2017-05-02T02:57:13.543Z,90.80
2017-05-02T02:59:41.847Z,91.10
2017-05-02T03:02:10.866Z,91.40
2017-05-02T03:04:39.145Z,90.90
2017-05-02T03:07:07.478Z,90.80
2017-05-02T03:09:35.766Z,91.10
2017-05-02T03:12:04.790Z,90.80
2017-05-02T03:14:33.156Z,91.00
2017-05-02T03:17:01.433Z,91.10
2017-05-02T03:19:29.715Z,91.50
2017-05-02T03:21:58.063Z,91.30
2017-05-02T03:24:26.340Z,91.30
2017-05-02T03:26:54.641Z,91.40
2017-05-02T03:29:23.711Z,91.40
2017-05-02T03:31:51.997Z,91.50
2017-05-02T03:34:20.281Z,91.30
2017-05-02T03:36:49.347Z,91.40
2017-05-02T03:39:17.634Z,91.00
2017-05-02T03:41:45.909Z,91.10
2017-05-02T03:44:14.235Z,91.20
2017-05-02T03:46:42.511Z,90.80
2017-05-02T03:49:10.789Z,90.70
2017-05-02T03:51:39.110Z,90.70
2017-05-02T03:54:07.389Z,91.00
2017-05-02T03:56:35.678Z,91.20
2017-05-02T03:59:04.009Z,91.30
2017-05-02T04:01:32.280Z,91.20
2017-05-02T04:04:00.561Z,91.30
2017-05-02T04:06:28.868Z,91.40
2017-05-02T04:08:57.159Z,91.30
2017-05-02T04:11:25.441Z,91.20
2017-05-02T04:13:53.766Z,91.10
2017-05-02T04:16:22.060Z,91.00
2017-05-02T04:18:50.341Z,90.90
2017-05-02T04:21:18.658Z,91.30
2017-05-02T04:23:46.941Z,91.30
2017-05-02T04:26:15.228Z,91.10
2017-05-02T04:28:43.545Z,91.30
2017-05-02T04:31:11.833Z,91.50
2017-05-02T04:33:40.114Z,91.50
2017-05-02T04:36:08.428Z,91.30
2017-05-02T04:38:36.709Z,91.50
2017-05-02T04:41:04.985Z,91.30
2017-05-02T04:43:33.318Z,90.70
2017-05-02T04:46:01.609Z,91.20
2017-05-02T04:48:29.890Z,91.20
2017-05-02T04:50:58.216Z,91.10
2017-05-02T04:53:26.511Z,91.20
2017-05-02T04:55:54.850Z,91.10
2017-05-02T04:58:23.175Z,90.90
2017-05-02T05:00:51.490Z,91.10
2017-05-02T05:03:19.784Z,90.50
2017-05-02T05:05:48.113Z,90.90
2017-05-02T05:08:16.397Z,90.50
2017-05-02T05:10:44.686Z,90.50
2017-05-02T05:13:13.021Z,90.50
2017-05-02T05:15:42.050Z,90.60
2017-05-02T05:18:10.331Z,90.50
2017-05-02T05:20:38.654Z,90.50
2017-05-02T05:23:07.027Z,90.60
2017-05-02T05:25:35.325Z,89.60
2017-05-02T05:28:03.643Z,89.00
2017-05-02T05:30:31.917Z,88.40
2017-05-02T05:33:00.209Z,89.30
2017-05-02T05:35:28.532Z,89.90
2017-05-02T05:37:56.835Z,89.00
2017-05-02T05:40:25.118Z,89.00
2017-05-02T05:42:54.184Z,87.50
2017-05-02T05:45:22.457Z,87.90
2017-05-02T05:47:50.737Z,88.20
2017-05-02T05:50:19.067Z,86.60
2017-05-02T05:52:47.371Z,87.10
2017-05-02T05:55:15.664Z,85.10
2017-05-02T05:57:44.913Z,86.30
2017-05-02T06:00:13.205Z,84.70
2017-05-02T06:02:41.501Z,83.30
2017-05-02T06:05:09.817Z,81.90
2017-05-02T06:07:38.106Z,83.80
2017-05-02T06:10:07.133Z,83.70
2017-05-02T06:12:35.459Z,85.80
2017-05-02T06:15:03.761Z,85.70
2017-05-02T06:17:32.790Z,85.20
2017-05-02T06:20:02.046Z,86.20
2017-05-02T06:22:30.331Z,85.90
2017-05-02T06:24:59.362Z,84.90
2017-05-02T06:27:27.685Z,84.70
2017-05-02T06:29:55.961Z,83.60
2017-05-02T06:32:24.243Z,85.40
2017-05-02T06:34:52.560Z,85.30
2017-05-02T06:37:20.853Z,83.90
2017-05-02T06:39:49.145Z,81.50
2017-05-02T06:42:17.460Z,82.20
2017-05-02T06:44:45.740Z,83.80
2017-05-02T06:47:14.029Z,81.80
2017-05-02T06:49:42.381Z,80.10
2017-05-02T06:52:10.739Z,80.00
2017-05-02T06:54:39.023Z,81.90
2017-05-02T06:57:07.337Z,78.20
2017-05-02T06:59:35.620Z,81.80
2017-05-02T07:02:03.914Z,82.50
2017-05-02T07:04:32.998Z,80.00
2017-05-02T07:07:02.029Z,82.70
2017-05-02T07:09:30.314Z,82.20
2017-05-02T07:11:58.650Z,82.50
2017-05-02T07:14:26.944Z,83.00
2017-05-02T07:16:55.244Z,83.10
2017-05-02T07:19:23.565Z,83.20
2017-05-02T07:21:51.845Z,84.30
2017-05-02T07:24:20.121Z,81.50
2017-05-02T07:26:48.441Z,82.00
2017-05-02T07:29:17.473Z,81.40
2017-05-02T07:31:45.749Z,80.80
2017-05-02T07:34:14.520Z,80.20
2017-05-02T07:36:42.821Z,80.10
2017-05-02T07:39:11.114Z,80.90
2017-05-02T07:41:39.442Z,82.80
2017-05-02T07:44:07.720Z,80.60
2017-05-02T07:46:36.002Z,80.40
2017-05-02T07:49:04.320Z,82.30
2017-05-02T07:51:32.630Z,83.20
2017-05-02T07:54:00.910Z,80.30
2017-05-02T07:56:29.989Z,82.00
2017-05-02T07:58:58.273Z,81.70
2017-05-02T08:01:26.567Z,84.50
2017-05-02T08:03:54.903Z,84.00
2017-05-02T08:06:23.189Z,83.50
2017-05-02T08:08:51.473Z,84.90
2017-05-02T08:11:19.783Z,82.90
2017-05-02T08:13:48.816Z,81.40
2017-05-02T08:16:18.014Z,80.50
2017-05-02T08:18:46.346Z,80.80
2017-05-02T08:21:15.378Z,81.20
2017-05-02T08:23:43.661Z,80.80
2017-05-02T08:26:11.973Z,83.40
2017-05-02T08:28:40.256Z,82.60
2017-05-02T08:31:08.573Z,83.90
2017-05-02T08:33:37.592Z,83.00
2017-05-02T08:36:05.885Z,84.90
2017-05-02T08:38:34.211Z,82.60
2017-05-02T08:41:03.246Z,84.90
2017-05-02T08:43:31.534Z,84.90
2017-05-02T08:45:59.841Z,84.80
2017-05-02T08:48:28.132Z,84.70
2017-05-02T08:50:56.410Z,87.10
2017-05-02T08:53:24.736Z,85.50
2017-05-02T08:55:53.038Z,85.40
2017-05-02T08:58:21.350Z,86.80
2017-05-02T09:00:50.377Z,86.70
2017-05-02T09:03:18.653Z,85.70
2017-05-02T09:05:46.969Z,83.90
2017-05-02T09:08:15.261Z,85.20
2017-05-02T09:10:43.566Z,83.70
2017-05-02T09:13:12.600Z,83.90
2017-05-02T09:15:40.890Z,83.00
2017-05-02T09:18:09.213Z,82.00
2017-05-02T09:20:38.246Z,80.90
2017-05-02T09:23:06.518Z,81.60
2017-05-02T09:25:34.845Z,81.90
2017-05-02T09:28:03.125Z,81.30
2017-05-02T09:30:31.417Z,82.00
2017-05-02T09:32:59.742Z,82.60
2017-05-02T09:35:28.017Z,80.30
2017-05-02T09:37:56.306Z,82.20
2017-05-02T09:40:24.613Z,80.70
2017-05-02T09:42:52.922Z,80.90
2017-05-02T09:45:21.203Z,78.80
2017-05-02T09:47:49.539Z,80.40
2017-05-02T09:50:17.828Z,79.20
2017-05-02T09:52:46.109Z,77.90
2017-05-02T09:55:14.424Z,75.80
2017-05-02T09:57:42.714Z,80.60
2017-05-02T10:00:11.029Z,77.90
2017-05-02T10:02:39.318Z,79.10
2017-05-02T10:05:07.601Z,78.30
2017-05-02T10:07:35.922Z,79.10
2017-05-02T10:10:04.261Z,77.50
2017-05-02T10:12:32.543Z,79.10
2017-05-02T10:15:00.857Z,77.30
2017-05-02T10:17:29.476Z,76.70
2017-05-02T10:19:57.774Z,76.40
2017-05-02T10:22:26.110Z,78.50
2017-05-02T10:24:54.397Z,77.80
2017-05-02T10:27:22.675Z,71.60
2017-05-02T10:29:51.005Z,74.30
2017-05-02T10:32:19.298Z,71.40
2017-05-02T10:34:48.329Z,69.00
2017-05-02T10:51:37.937Z,58.00
2017-05-02T10:54:06.240Z,59.00
2017-05-02T10:56:35.275Z,58.30
2017-05-02T10:59:03.618Z,59.80
2017-05-02T11:01:32.637Z,54.80
2017-05-02T11:04:01.830Z,55.70
2017-05-02T11:06:30.149Z,58.20
2017-05-02T11:08:58.434Z,55.00
2017-05-02T11:11:26.727Z,56.70
2017-05-02T11:13:55.043Z,54.60
2017-05-02T11:16:23.335Z,53.40
2017-05-02T11:18:51.651Z,54.70
2017-05-02T11:21:19.951Z,52.90
2017-05-02T11:23:48.234Z,53.10
2017-05-02T11:26:17.289Z,50.70
2017-05-02T11:28:45.570Z,49.30
2017-05-02T11:31:13.850Z,49.80
2017-05-02T11:33:42.162Z,50.80
2017-05-02T11:36:10.437Z,50.10
2017-05-02T11:38:38.737Z,50.10
2017-05-02T11:41:07.793Z,50.80
2017-05-02T11:43:36.088Z,49.00
2017-05-02T11:46:04.365Z,49.40
2017-05-02T11:48:32.685Z,47.40
2017-05-02T11:51:00.966Z,47.80
2017-05-02T11:53:29.250Z,48.40
2017-05-02T11:55:57.573Z,49.90
2017-05-02T11:58:25.850Z,49.80
2017-05-02T12:00:54.128Z,50.20
2017-05-02T12:03:22.453Z,49.50
2017-05-02T12:05:50.740Z,48.80
2017-05-02T12:08:19.027Z,48.80
2017-05-02T12:10:47.357Z,47.40
2017-05-02T12:13:16.377Z,44.70
2017-05-02T12:15:44.658Z,45.00
2017-05-02T12:18:12.974Z,45.40
2017-05-02T12:20:41.244Z,45.80
2017-05-02T12:23:09.527Z,44.80
2017-05-02T12:25:37.863Z,45.80
2017-05-02T12:28:06.157Z,45.40
2017-05-02T12:30:34.449Z,44.20
2017-05-02T12:33:02.761Z,43.60
2017-05-02T12:35:31.042Z,44.50
2017-05-02T12:37:59.327Z,47.60
2017-05-02T12:40:28.394Z,45.60
2017-05-02T12:42:56.674Z,47.70
2017-05-02T12:45:25.057Z,45.80
2017-05-02T12:47:53.374Z,43.90
2017-05-02T12:50:22.402Z,43.70
2017-05-02T12:52:50.693Z,40.70
2017-05-02T12:57:47.353Z,40.30
2017-05-02T13:00:15.645Z,41.60
2017-05-02T13:02:43.970Z,42.50
2017-05-02T13:05:12.249Z,42.20
2017-05-02T13:07:40.525Z,41.30
2017-05-02T13:10:09.584Z,43.50
2017-05-02T13:12:37.869Z,42.70
2017-05-02T13:15:06.161Z,42.70
2017-05-02T13:17:35.231Z,41.70
2017-05-02T13:20:03.510Z,39.40
2017-05-02T13:22:31.788Z,39.30
2017-05-02T13:25:00.096Z,39.70
2017-05-02T13:27:28.381Z,40.40
2017-05-02T13:29:57.427Z,39.50
2017-05-02T13:32:25.722Z,42.10
2017-05-02T13:34:54.003Z,41.80
2017-05-02T13:37:22.321Z,40.70
2017-05-02T13:39:50.693Z,40.00
2017-05-02T13:42:19.720Z,38.90
2017-05-02T13:44:48.052Z,39.70
2017-05-02T13:47:16.331Z,40.20
2017-05-02T13:49:45.349Z,38.90
2017-05-02T13:52:13.680Z,40.00
2017-05-02T13:54:41.974Z,39.10
2017-05-02T13:57:10.258Z,39.60
2017-05-02T13:59:38.565Z,39.10
2017-05-02T14:02:06.859Z,38.70
2017-05-02T14:04:35.180Z,39.50
2017-05-02T14:07:03.481Z,39.00
2017-05-02T14:09:32.500Z,38.50
2017-05-02T14:12:00.813Z,38.10
2017-05-02T14:14:29.093Z,38.60
2017-05-02T14:16:57.374Z,39.20
2017-05-02T14:19:25.694Z,38.40
2017-05-02T14:21:54.713Z,39.00
2017-05-02T14:24:22.994Z,37.90
2017-05-02T14:26:51.325Z,38.30
2017-05-02T14:29:19.606Z,37.30
2017-05-02T14:31:48.638Z,36.80
2017-05-02T14:34:16.953Z,36.40
2017-05-02T14:36:45.238Z,36.40
2017-05-02T14:39:13.529Z,36.30
2017-05-02T14:41:41.861Z,35.80
2017-05-02T14:44:10.148Z,36.80
2017-05-02T14:46:38.449Z,34.80
2017-05-02T14:49:06.777Z,35.70
2017-05-02T14:51:35.104Z,35.90
2017-05-02T14:54:03.546Z,36.30
2017-05-02T14:56:31.962Z,36.30
2017-05-02T14:59:00.327Z,37.10
2017-05-02T15:01:28.775Z,38.00
2017-05-02T15:03:57.124Z,36.30
2017-05-02T15:06:25.405Z,36.70
2017-05-02T15:08:53.690Z,37.00
2017-05-02T15:11:22.750Z,36.40
2017-05-02T15:13:51.039Z,38.40
2017-05-02T15:16:19.330Z,37.40
2017-05-02T15:18:47.688Z,36.70
2017-05-02T15:21:15.986Z,37.40
2017-05-02T15:23:44.562Z,37.70
2017-05-02T15:26:12.866Z,37.80
2017-05-02T15:28:41.178Z,38.70
2017-05-02T15:31:09.649Z,38.20
2017-05-02T15:33:37.964Z,36.70
2017-05-02T15:36:06.255Z,37.80
2017-05-02T15:38:34.566Z,37.80
2017-05-02T15:41:03.722Z,38.60
2017-05-02T15:43:32.138Z,36.30
2017-05-02T15:46:00.515Z,38.60
2017-05-02T15:48:29.548Z,37.90
2017-05-02T15:50:57.877Z,37.00
2017-05-02T15:53:26.260Z,38.70
2017-05-02T15:55:55.464Z,39.00
2017-05-02T15:58:24.548Z,37.20
2017-05-02T16:00:52.841Z,40.30
2017-05-02T16:03:21.282Z,37.90
2017-05-02T16:05:49.756Z,39.30
2017-05-02T16:08:18.058Z,37.00
2017-05-02T16:10:46.368Z,40.60
2017-05-02T16:13:15.521Z,38.70
2017-05-02T16:15:44.170Z,39.00
2017-05-02T16:18:12.564Z,40.20
2017-05-02T16:20:41.139Z,39.10
2017-05-02T16:23:09.446Z,38.80
2017-05-02T16:25:37.755Z,39.10
2017-05-02T16:28:06.093Z,39.80
2017-05-02T16:30:34.417Z,40.00
2017-05-02T16:33:02.694Z,39.90
2017-05-02T16:35:31.016Z,39.80
2017-05-02T16:37:59.296Z,39.70
2017-05-02T16:40:27.613Z,39.40
2017-05-02T16:42:55.893Z,39.50
2017-05-02T16:45:24.230Z,39.40
2017-05-02T16:47:52.533Z,41.10
2017-05-02T16:50:21.135Z,40.50
2017-05-02T16:52:49.452Z,40.80
2017-05-02T16:55:18.472Z,42.30
2017-05-02T16:57:46.753Z,44.80
2017-05-02T17:00:18.844Z,43.70
2017-05-02T17:02:47.131Z,41.60
2017-05-02T17:05:15.457Z,43.30
2017-05-02T17:07:44.494Z,43.10
2017-05-02T17:10:12.780Z,43.00
2017-05-02T17:12:41.081Z,45.10
2017-05-02T17:15:09.359Z,45.40
2017-05-02T17:17:39.579Z,46.40
2017-05-02T17:20:07.878Z,47.10
2017-05-02T17:22:36.153Z,46.30
2017-05-02T17:25:04.445Z,45.70
2017-05-02T17:27:32.735Z,47.00
2017-05-02T17:30:01.063Z,47.00
2017-05-02T17:32:29.356Z,46.00
2017-05-02T17:34:57.648Z,47.80
2017-05-02T17:37:26.691Z,48.00
2017-05-02T17:39:55.089Z,46.80
2017-05-02T17:42:23.401Z,48.10
2017-05-02T17:44:52.425Z,50.00
2017-05-02T17:47:20.709Z,51.40
2017-05-02T17:49:49.028Z,50.60
2017-05-02T17:52:17.309Z,51.80
2017-05-02T17:54:45.641Z,52.00
2017-05-02T17:57:13.918Z,52.50
2017-05-02T17:59:42.205Z,53.70
2017-05-02T18:02:10.524Z,53.90
2017-05-02T18:04:38.809Z,54.80
2017-05-02T18:07:07.085Z,56.60
2017-05-02T18:09:35.405Z,57.10
2017-05-02T18:12:03.685Z,57.20
2017-05-02T18:14:32.003Z,56.60
2017-05-02T18:17:00.332Z,57.90
2017-05-02T18:19:28.610Z,56.50
2017-05-02T18:21:56.888Z,55.60
2017-05-02T18:24:25.218Z,57.70
2017-05-02T18:26:53.504Z,61.70
2017-05-02T18:29:21.781Z,61.30
2017-05-02T18:31:50.084Z,61.50
2017-05-02T18:34:20.048Z,62.70
2017-05-02T18:36:48.325Z,62.70
2017-05-02T18:39:16.633Z,61.90
2017-05-02T18:41:44.915Z,62.90
2017-05-02T18:44:13.193Z,63.60
2017-05-02T18:46:41.505Z,64.60
2017-05-02T18:49:10.529Z,66.10
2017-05-02T18:51:38.809Z,67.70
2017-05-02T18:54:07.130Z,68.90
2017-05-02T18:56:35.405Z,69.90
2017-05-02T18:59:03.726Z,70.40
2017-05-02T19:01:32.063Z,71.50
2017-05-02T19:04:00.340Z,71.20
2017-05-02T19:06:28.617Z,72.60
2017-05-02T19:08:56.937Z,72.90
2017-05-02T19:11:25.215Z,73.10
2017-05-02T19:13:53.489Z,73.60
2017-05-02T19:16:21.828Z,74.20
2017-05-02T19:18:50.110Z,74.30
2017-05-02T19:21:18.397Z,75.80
2017-05-02T19:23:47.464Z,75.70
2017-05-02T19:26:15.742Z,76.00
2017-05-02T19:28:44.023Z,76.50
2017-05-02T19:31:12.345Z,77.90
2017-05-02T19:33:41.364Z,78.00
2017-05-02T19:36:09.645Z,79.30
2017-05-02T19:38:37.962Z,79.50
2017-05-02T19:41:06.242Z,80.30
2017-05-02T19:43:34.532Z,80.20
2017-05-02T19:46:02.850Z,80.70
2017-05-02T19:48:31.128Z,82.00
2017-05-02T19:50:59.413Z,81.90
2017-05-02T19:53:27.738Z,81.60
2017-05-02T19:55:56.028Z,81.40
2017-05-02T19:58:24.350Z,82.00
2017-05-02T20:00:52.626Z,82.00
2017-05-02T20:03:20.905Z,81.80
2017-05-02T20:05:49.218Z,83.10
2017-05-02T20:08:17.500Z,83.10
2017-05-02T20:10:45.789Z,83.90
2017-05-02T20:13:14.107Z,84.00
2017-05-02T20:15:42.378Z,85.30
2017-05-02T20:18:10.657Z,85.20
2017-05-02T20:20:38.981Z,85.70
2017-05-02T20:23:07.257Z,85.20
2017-05-02T20:25:35.537Z,84.30
2017-05-02T20:28:03.848Z,85.00
2017-05-02T20:30:32.885Z,84.50
2017-05-02T20:33:01.156Z,85.10
2017-05-02T20:35:29.473Z,85.10
2017-05-02T20:37:57.745Z,84.80
2017-05-02T20:40:26.026Z,85.30
2017-05-02T20:42:54.349Z,85.90
2017-05-02T20:45:23.366Z,86.50
2017-05-02T20:47:51.648Z,86.70
2017-05-02T20:50:19.961Z,87.50
2017-05-02T20:52:48.240Z,87.90
2017-05-02T20:55:16.516Z,88.30
2017-05-02T20:57:44.837Z,89.00
2017-05-02T21:00:13.120Z,89.40
2017-05-02T21:02:41.397Z,89.50
2017-05-02T21:05:09.732Z,89.80
2017-05-02T21:07:38.013Z,90.10
2017-05-02T21:10:06.291Z,90.30
2017-05-02T21:12:34.607Z,90.60
2017-05-02T21:15:02.885Z,90.80
2017-05-02T21:17:31.170Z,91.00
2017-05-02T21:19:59.471Z,91.00
2017-05-02T21:22:27.745Z,90.90
2017-05-02T21:24:56.022Z,90.90
2017-05-02T21:27:24.333Z,91.30
2017-05-02T21:29:52.607Z,91.60
2017-05-02T21:32:20.886Z,91.50
2017-05-02T21:34:54.949Z,91.50
2017-05-02T21:37:23.230Z,91.60
2017-05-02T21:39:52.440Z,91.70
2017-05-02T21:42:20.741Z,91.80
2017-05-02T21:44:49.014Z,91.80
2017-05-02T21:47:17.290Z,91.80
2017-05-02T21:49:45.613Z,91.80
2017-05-02T21:52:13.889Z,92.00
2017-05-02T21:54:42.177Z,92.10
2017-05-02T21:57:11.247Z,91.90
2017-05-02T21:59:39.518Z,91.80
2017-05-02T22:02:07.791Z,91.90
2017-05-02T22:04:36.109Z,91.90
2017-05-02T22:07:04.394Z,91.80
2017-05-02T22:09:33.405Z,91.90
2017-05-02T22:12:01.701Z,92.00
2017-05-02T22:14:29.993Z,92.00
2017-05-02T22:16:58.277Z,92.10
2017-05-02T22:19:26.593Z,92.10
2017-05-02T22:21:55.615Z,92.00
2017-05-02T22:24:23.901Z,91.90
2017-05-02T22:26:52.222Z,91.80
2017-05-02T22:29:20.492Z,91.70
2017-05-02T22:31:48.777Z,91.70
2017-05-02T22:34:17.089Z,91.80
2017-05-02T22:36:45.364Z,91.90
2017-05-02T22:39:14.398Z,92.30
2017-05-02T22:41:42.722Z,92.30
2017-05-02T22:44:11.754Z,92.30
2017-05-02T22:46:40.062Z,92.20
2017-05-02T22:49:08.383Z,92.30
2017-05-02T22:51:37.402Z,92.40
2017-05-02T22:54:05.676Z,92.60
2017-05-02T22:56:33.993Z,92.50
2017-05-02T22:59:02.281Z,92.40
2017-05-02T23:01:30.557Z,92.50
2017-05-02T23:03:58.865Z,92.70
2017-05-02T23:06:27.893Z,92.80
2017-05-02T23:08:56.168Z,92.90
2017-05-02T23:11:24.485Z,93.00
2017-05-02T23:13:52.773Z,93.00
2017-05-02T23:16:21.047Z,93.10
2017-05-02T23:18:49.361Z,92.90
2017-05-02T23:21:18.377Z,92.80
2017-05-02T23:23:46.654Z,92.90
2017-05-02T23:26:14.974Z,92.80
2017-05-02T23:28:43.259Z,92.70
2017-05-02T23:31:11.536Z,92.60
2017-05-02T23:33:39.848Z,92.50
2017-05-02T23:36:08.877Z,92.60
2017-05-02T23:38:37.159Z,92.40
2017-05-02T23:41:05.463Z,92.40
2017-05-02T23:43:33.746Z,92.50
2017-05-02T23:46:02.026Z,92.60
2017-05-02T23:48:30.354Z,92.60
2017-05-02T23:50:58.637Z,92.80
2017-05-02T23:53:26.922Z,92.80
2017-05-02T23:55:55.241Z,92.80
2017-05-02T23:58:23.514Z,92.90
